Nisku, Canada
Current Conditions -  °F | °C
As of 11:00 PM on Tuesday 27 Jan 2015 (Local Time) from CYEG Reporting Station
Light Snow Light Snow  
Wind Chill: 25°   Ceiling: 500
Heat Index: 32°   Visibility: 4mi
Dew Point: 30°   Wind: 8mph
Humidity: 93%   Direction: 310°NW
Pressure: 29.93"   Gusts: NA
Location:  53.33°N, 113.53°W
Report Text: CYEG 280600Z 31007KT 4SM -SN BKN005 OVC009 00/M01 A2993 RMK ST6ST2 SLP167
Loading
Personal Weather Stations






























Interactive Weather Map New forecast layout! Learn more

10-Day Weather Forecast

Advertisements
Track Severe Weather on mobile